createdAt,value
2022-12-17T00:00:14.518Z,92.07
2022-12-17T00:03:00.604Z,80.43
2022-12-17T00:05:46.586Z,78.40
2022-12-17T00:08:32.536Z,90.97
2022-12-17T00:11:18.607Z,94.67
2022-12-17T00:14:04.512Z,76.00
2022-12-17T00:16:50.438Z,92.17
2022-12-17T00:19:36.459Z,90.40
2022-12-17T00:22:22.421Z,81.73
2022-12-17T00:25:08.500Z,85.33
2022-12-17T00:27:54.573Z,84.57
2022-12-17T00:30:40.480Z,85.87
2022-12-17T00:33:26.499Z,85.30
2022-12-17T00:36:12.623Z,94.30
2022-12-17T00:38:58.632Z,84.03
2022-12-17T00:41:44.680Z,87.17
2022-12-17T00:44:30.609Z,84.53
2022-12-17T00:47:16.522Z,87.03
2022-12-17T00:50:02.496Z,89.37
2022-12-17T00:52:48.070Z,92.57
2022-12-17T00:55:34.159Z,87.87
2022-12-17T00:58:19.890Z,83.03
2022-12-17T01:01:05.848Z,76.87
2022-12-17T01:03:51.790Z,88.03
2022-12-17T01:06:38.133Z,77.77
2022-12-17T01:09:24.065Z,81.40
2022-12-17T01:12:10.260Z,81.03
2022-12-17T01:14:56.084Z,81.33
2022-12-17T01:17:41.978Z,84.23
2022-12-17T01:20:27.705Z,79.17
2022-12-17T01:23:33.761Z,72.60
2022-12-17T01:26:19.954Z,75.07
2022-12-17T01:29:05.992Z,71.43
2022-12-17T01:31:51.929Z,71.93
2022-12-17T01:34:37.660Z,81.70
2022-12-17T01:37:23.428Z,73.13
2022-12-17T01:40:09.382Z,78.90
2022-12-17T01:42:59.018Z,73.67
2022-12-17T01:45:45.164Z,72.63
2022-12-17T01:48:32.949Z,79.97
2022-12-17T01:51:19.063Z,75.40
2022-12-17T01:54:06.638Z,80.77
2022-12-17T01:56:56.945Z,76.77
2022-12-17T02:00:03.039Z,74.43
2022-12-17T02:02:48.838Z,73.40
2022-12-17T02:05:34.781Z,76.00
2022-12-17T02:08:20.757Z,77.67
2022-12-17T02:11:18.334Z,74.00
2022-12-17T02:14:25.326Z,86.60
2022-12-17T02:17:12.150Z,89.97
2022-12-17T02:20:10.076Z,102.23
2022-12-17T02:23:14.479Z,90.83
2022-12-17T02:26:05.399Z,76.27
2022-12-17T02:28:50.939Z,83.47
2022-12-17T02:31:36.675Z,87.03
2022-12-17T02:34:22.625Z,86.77
2022-12-17T02:37:08.652Z,90.47
2022-12-17T02:39:57.146Z,80.20
2022-12-17T02:43:02.995Z,87.43
2022-12-17T02:45:48.490Z,74.53
2022-12-17T02:48:34.420Z,79.07
2022-12-17T02:51:20.093Z,66.30
2022-12-17T02:54:05.967Z,64.43
2022-12-17T02:56:51.755Z,54.00
2022-12-17T02:59:37.669Z,53.43
2022-12-17T03:02:23.740Z,56.47
2022-12-17T03:05:35.714Z,50.10
2022-12-17T03:08:15.542Z,49.40
2022-12-17T03:11:01.595Z,55.77
2022-12-17T03:13:48.174Z,54.13
2022-12-17T03:16:37.798Z,48.90
2022-12-17T03:19:23.783Z,57.23
2022-12-17T03:22:09.702Z,58.07
2022-12-17T03:24:55.575Z,55.37
2022-12-17T03:27:41.551Z,50.30
2022-12-17T03:30:28.826Z,58.90
2022-12-17T03:33:17.029Z,54.37
2022-12-17T03:36:02.655Z,60.33
2022-12-17T03:38:48.673Z,52.27
2022-12-17T03:41:34.403Z,57.33
2022-12-17T03:44:20.428Z,56.57
2022-12-17T03:47:06.570Z,52.00
2022-12-17T03:49:52.580Z,50.80
2022-12-17T03:52:38.615Z,54.43
2022-12-17T03:55:24.688Z,48.30
2022-12-17T03:58:10.532Z,55.97
2022-12-17T04:00:56.503Z,59.00
2022-12-17T04:03:42.300Z,52.87
2022-12-17T04:06:28.028Z,55.80
2022-12-17T04:09:14.144Z,57.80
2022-12-17T04:12:00.215Z,51.17
2022-12-17T04:14:46.300Z,61.80
2022-12-17T04:17:32.285Z,59.17
2022-12-17T04:20:18.256Z,59.13
2022-12-17T04:23:04.269Z,69.37
2022-12-17T04:25:49.824Z,56.73
2022-12-17T04:28:35.669Z,57.87
2022-12-17T04:31:21.720Z,58.77
2022-12-17T04:34:07.454Z,44.60
2022-12-17T04:36:53.507Z,59.67
2022-12-17T04:39:39.279Z,60.17
2022-12-17T04:42:25.227Z,58.77
2022-12-17T04:45:11.233Z,56.70
2022-12-17T04:47:57.045Z,55.20
2022-12-17T04:50:43.067Z,60.63
2022-12-17T04:53:29.117Z,63.60
2022-12-17T04:56:15.198Z,54.30
2022-12-17T04:59:01.210Z,51.10
2022-12-17T05:01:47.278Z,49.00
2022-12-17T05:04:32.961Z,55.60
2022-12-17T05:07:18.964Z,51.30
2022-12-17T05:10:04.891Z,50.83
2022-12-17T05:12:50.722Z,51.27
2022-12-17T05:15:36.726Z,52.50
2022-12-17T05:18:26.157Z,45.27
2022-12-17T05:21:12.168Z,51.07
2022-12-17T05:23:58.094Z,45.17
2022-12-17T05:26:44.413Z,45.40
2022-12-17T05:29:30.591Z,48.10
2022-12-17T05:32:16.325Z,46.23
2022-12-17T05:35:02.264Z,45.70
2022-12-17T05:37:48.313Z,49.57
2022-12-17T05:40:34.182Z,41.00
2022-12-17T05:43:20.621Z,49.87
2022-12-17T05:46:06.837Z,45.93
2022-12-17T05:48:52.725Z,40.50
2022-12-17T05:51:39.142Z,42.90
2022-12-17T05:54:24.930Z,40.43
2022-12-17T05:57:10.925Z,39.17
2022-12-17T05:59:56.953Z,42.20
2022-12-17T06:02:43.148Z,38.57
2022-12-17T06:05:28.845Z,41.23
2022-12-17T06:08:21.409Z,50.87
2022-12-17T06:11:07.428Z,40.23
2022-12-17T06:14:00.838Z,41.80
2022-12-17T06:16:46.751Z,39.23
2022-12-17T06:19:32.884Z,42.63
2022-12-17T06:22:18.854Z,47.83
2022-12-17T06:25:04.773Z,43.73
2022-12-17T06:27:50.682Z,39.03
2022-12-17T06:30:36.767Z,35.97
2022-12-17T06:33:23.584Z,38.83
2022-12-17T06:36:09.434Z,39.00
2022-12-17T06:38:55.116Z,37.87
2022-12-17T06:41:40.826Z,41.97
2022-12-17T06:44:26.735Z,42.53
2022-12-17T06:47:12.743Z,53.30
2022-12-17T06:50:01.479Z,44.93
2022-12-17T06:52:47.611Z,47.90
2022-12-17T06:55:33.640Z,52.07
2022-12-17T06:58:19.580Z,61.37
2022-12-17T07:01:05.698Z,61.47
2022-12-17T07:03:51.380Z,53.80
2022-12-17T07:06:37.304Z,49.73
2022-12-17T07:09:23.330Z,47.23
2022-12-17T07:12:09.214Z,58.20
2022-12-17T07:14:55.027Z,71.77
2022-12-17T07:17:42.629Z,59.30
2022-12-17T07:20:28.897Z,103.03
2022-12-17T07:23:15.172Z,59.87
2022-12-17T07:26:01.197Z,67.50
2022-12-17T07:28:47.201Z,81.80
2022-12-17T07:31:33.242Z,100.87
2022-12-17T07:34:19.153Z,64.87
2022-12-17T07:37:05.075Z,70.53
2022-12-17T07:39:50.943Z,51.20
2022-12-17T07:42:37.096Z,69.33
2022-12-17T07:45:23.145Z,66.97
2022-12-17T07:48:14.758Z,63.67
2022-12-17T07:51:00.758Z,60.33
2022-12-17T07:53:46.553Z,59.07
2022-12-17T07:56:32.397Z,55.57
2022-12-17T07:59:18.474Z,55.47
2022-12-17T08:02:04.737Z,55.13
2022-12-17T08:04:50.659Z,54.60
2022-12-17T08:07:36.606Z,54.37
2022-12-17T08:10:22.633Z,55.40
2022-12-17T08:13:15.166Z,55.07
2022-12-17T08:16:01.042Z,51.87
2022-12-17T08:18:57.822Z,54.97
2022-12-17T08:21:43.901Z,53.20
2022-12-17T08:24:29.846Z,54.43
2022-12-17T08:27:15.506Z,61.53
2022-12-17T08:30:01.552Z,52.83
2022-12-17T08:32:47.600Z,66.73
2022-12-17T08:35:33.307Z,54.47
2022-12-17T08:38:22.410Z,56.17
2022-12-17T08:41:08.464Z,61.23
2022-12-17T08:43:54.425Z,59.93
2022-12-17T08:46:40.437Z,58.90
2022-12-17T08:49:26.467Z,56.73
2022-12-17T08:52:12.303Z,53.13
2022-12-17T08:54:58.301Z,59.10
2022-12-17T08:57:44.216Z,52.30
2022-12-17T09:00:30.036Z,55.40
2022-12-17T09:03:19.342Z,61.17
2022-12-17T09:06:05.213Z,62.63
2022-12-17T09:08:51.175Z,76.63
2022-12-17T09:11:37.105Z,80.03
2022-12-17T09:14:23.007Z,96.30
2022-12-17T09:17:09.196Z,98.80
2022-12-17T09:19:54.971Z,92.87
2022-12-17T09:22:40.936Z,149.10
2022-12-17T09:25:26.849Z,108.00
2022-12-17T09:28:12.927Z,156.13
2022-12-17T09:30:58.660Z,194.13
2022-12-17T09:33:44.451Z,160.70
2022-12-17T09:36:30.446Z,116.70
2022-12-17T09:39:16.424Z,103.87
2022-12-17T09:42:11.398Z,160.10
2022-12-17T09:45:06.301Z,124.43
2022-12-17T09:47:57.748Z,137.00
2022-12-17T09:50:43.751Z,139.17
2022-12-17T09:53:58.638Z,185.00
2022-12-17T09:56:44.965Z,192.63
2022-12-17T09:59:40.908Z,158.73
2022-12-17T10:02:31.502Z,171.30
2022-12-17T10:05:17.331Z,152.37
2022-12-17T10:08:03.095Z,139.17
2022-12-17T10:10:49.880Z,179.47
2022-12-17T10:13:37.019Z,177.20
2022-12-17T10:16:35.971Z,134.87
2022-12-17T10:19:21.869Z,133.80
2022-12-17T10:22:07.516Z,114.53
2022-12-17T10:25:02.674Z,105.97
2022-12-17T10:27:48.564Z,102.27
2022-12-17T10:30:35.140Z,93.83
2022-12-17T10:33:23.977Z,87.13
2022-12-17T10:36:09.930Z,97.30
2022-12-17T10:38:55.968Z,76.70
2022-12-17T10:41:48.573Z,76.03
2022-12-17T10:44:46.305Z,71.57
2022-12-17T10:47:32.554Z,75.77
2022-12-17T10:50:19.038Z,139.33
2022-12-17T10:53:05.148Z,91.47
2022-12-17T10:55:50.959Z,80.27
2022-12-17T10:58:44.595Z,73.40
2022-12-17T11:01:30.934Z,65.33
2022-12-17T11:04:17.414Z,68.30
2022-12-17T11:07:04.444Z,66.30
2022-12-17T11:10:09.637Z,65.47
2022-12-17T11:12:59.027Z,69.80
2022-12-17T11:15:52.287Z,62.53
2022-12-17T11:18:45.541Z,63.70
2022-12-17T11:21:32.882Z,59.27
2022-12-17T11:24:22.496Z,67.33
2022-12-17T11:27:09.720Z,65.87
2022-12-17T11:29:55.566Z,75.63
2022-12-17T11:32:43.990Z,71.63
2022-12-17T11:35:47.569Z,68.37
2022-12-17T11:38:41.138Z,79.73
2022-12-17T11:41:32.576Z,85.10
2022-12-17T11:44:21.038Z,65.40
2022-12-17T11:47:18.703Z,68.90
2022-12-17T11:50:24.772Z,72.73
2022-12-17T11:53:29.730Z,69.87
2022-12-17T11:56:24.556Z,68.17
2022-12-17T11:59:11.379Z,67.40
2022-12-17T12:02:05.779Z,66.63
2022-12-17T12:05:03.519Z,67.40
2022-12-17T12:08:01.304Z,69.47
2022-12-17T12:10:49.900Z,76.23
2022-12-17T12:13:44.905Z,81.20
2022-12-17T12:16:43.995Z,87.30
2022-12-17T12:19:32.893Z,90.07
2022-12-17T12:22:23.669Z,72.63
2022-12-17T12:25:13.425Z,69.50
2022-12-17T12:28:05.081Z,78.93
2022-12-17T12:31:06.815Z,80.50
2022-12-17T12:33:52.420Z,76.93
2022-12-17T12:36:38.451Z,73.47
2022-12-17T12:39:24.258Z,78.97
2022-12-17T12:42:20.964Z,76.10
2022-12-17T12:45:29.247Z,84.73
2022-12-17T12:48:21.152Z,83.93
2022-12-17T12:51:11.555Z,79.33
2022-12-17T12:53:57.398Z,81.10
2022-12-17T12:56:46.630Z,83.37
2022-12-17T12:59:43.699Z,77.97
2022-12-17T13:02:33.722Z,80.47
2022-12-17T13:05:19.495Z,81.17
2022-12-17T13:07:46.678Z,78.77
2022-12-17T13:10:32.461Z,98.03
2022-12-17T13:13:00.818Z,84.03
2022-12-17T13:15:33.684Z,90.40
2022-12-17T13:18:16.415Z,84.47
2022-12-17T13:20:43.580Z,75.57
2022-12-17T13:23:11.154Z,84.20
2022-12-17T13:25:38.313Z,81.33
2022-12-17T13:28:05.542Z,81.37
2022-12-17T13:30:38.911Z,85.30
2022-12-17T13:33:27.488Z,89.27
2022-12-17T13:35:57.782Z,89.60
2022-12-17T13:38:37.558Z,88.93
2022-12-17T13:41:10.344Z,88.07
2022-12-17T13:43:43.431Z,93.90
2022-12-17T13:46:36.661Z,94.97
2022-12-17T13:49:04.830Z,100.63
2022-12-17T13:51:32.533Z,95.40
2022-12-17T13:54:03.391Z,103.10
2022-12-17T13:56:31.383Z,93.60
2022-12-17T13:59:03.118Z,97.60
2022-12-17T14:01:33.722Z,98.53
2022-12-17T14:04:08.447Z,89.50
2022-12-17T14:06:37.226Z,90.57
2022-12-17T14:09:04.404Z,107.20
2022-12-17T14:11:50.674Z,99.90
2022-12-17T14:14:38.108Z,101.30
2022-12-17T14:17:05.324Z,110.33
2022-12-17T14:19:32.571Z,113.30
2022-12-17T14:21:59.892Z,121.93
2022-12-17T14:24:27.334Z,97.63
2022-12-17T14:26:55.279Z,127.73
2022-12-17T14:29:25.771Z,129.27
2022-12-17T14:31:56.805Z,113.90
2022-12-17T14:34:24.367Z,103.43
2022-12-17T14:36:58.597Z,107.07
2022-12-17T14:39:29.936Z,103.27
2022-12-17T14:42:16.112Z,101.47
2022-12-17T14:44:52.377Z,103.87
2022-12-17T14:47:21.547Z,84.57
2022-12-17T14:49:55.433Z,90.70
2022-12-17T14:52:35.567Z,79.90
2022-12-17T14:55:03.067Z,89.27
2022-12-17T14:57:30.237Z,96.63
2022-12-17T14:59:57.426Z,105.57
2022-12-17T15:02:28.372Z,134.60
2022-12-17T15:04:58.870Z,106.93
2022-12-17T15:07:26.875Z,81.90
2022-12-17T15:09:54.143Z,80.33
2022-12-17T15:12:21.630Z,88.97
2022-12-17T15:14:48.982Z,87.30
2022-12-17T15:17:16.216Z,80.90
2022-12-17T15:19:43.438Z,82.27
2022-12-17T15:22:17.024Z,85.33
2022-12-17T15:24:44.685Z,92.57
2022-12-17T15:27:16.234Z,86.10
2022-12-17T15:29:44.355Z,86.17
2022-12-17T15:32:14.517Z,89.67
2022-12-17T15:34:41.740Z,81.47
2022-12-17T15:37:08.972Z,100.17
2022-12-17T15:39:36.102Z,164.47
2022-12-17T15:42:21.786Z,123.37
2022-12-17T15:44:48.936Z,104.43
2022-12-17T15:47:16.078Z,74.77
2022-12-17T15:49:44.765Z,80.97
2022-12-17T15:52:15.011Z,87.07
2022-12-17T15:54:45.175Z,91.77
2022-12-17T15:57:18.384Z,106.13
2022-12-17T15:59:45.942Z,104.20
2022-12-17T16:02:13.425Z,88.33
2022-12-17T16:04:41.090Z,97.03
2022-12-17T16:07:08.313Z,98.00
2022-12-17T16:09:35.505Z,82.30
2022-12-17T16:12:02.681Z,88.00
2022-12-17T16:14:29.913Z,86.57
2022-12-17T16:16:57.092Z,93.87
2022-12-17T16:19:24.252Z,80.17
2022-12-17T16:21:51.522Z,88.33
2022-12-17T16:24:18.816Z,83.57
2022-12-17T16:26:45.998Z,84.83
2022-12-17T16:29:13.204Z,90.00
2022-12-17T16:31:40.460Z,95.57
2022-12-17T16:34:10.792Z,100.77
2022-12-17T16:36:37.988Z,147.27
2022-12-17T16:39:05.308Z,146.10
2022-12-17T16:41:32.555Z,133.00
2022-12-17T16:43:59.931Z,85.83
2022-12-17T16:46:27.330Z,115.97
2022-12-17T16:48:54.642Z,124.43
2022-12-17T16:51:28.392Z,116.47
2022-12-17T16:53:56.684Z,121.43
2022-12-17T16:56:24.652Z,114.53
2022-12-17T16:58:52.672Z,87.23
2022-12-17T17:01:20.574Z,91.50
2022-12-17T17:03:48.202Z,87.43
2022-12-17T17:06:15.768Z,92.63
2022-12-17T17:08:42.915Z,90.60
2022-12-17T17:11:16.776Z,98.10
2022-12-17T17:13:44.009Z,105.00
2022-12-17T17:16:11.440Z,95.70
2022-12-17T17:18:39.028Z,93.77
2022-12-17T17:21:16.316Z,104.83
2022-12-17T17:23:43.628Z,106.20
2022-12-17T17:26:10.921Z,119.57
2022-12-17T17:28:38.580Z,110.33
2022-12-17T17:31:06.946Z,100.73
2022-12-17T17:33:35.415Z,112.47
2022-12-17T17:36:06.276Z,107.57
2022-12-17T17:38:34.995Z,85.93
2022-12-17T17:41:02.532Z,85.43
2022-12-17T17:43:29.749Z,86.70
2022-12-17T17:45:56.959Z,95.67
2022-12-17T17:48:24.091Z,125.27
2022-12-17T17:50:58.397Z,117.37
2022-12-17T17:53:25.840Z,127.60
2022-12-17T17:55:52.999Z,120.80
2022-12-17T17:58:20.213Z,119.53
2022-12-17T18:00:47.510Z,123.50
2022-12-17T18:03:14.835Z,120.53
2022-12-17T18:05:42.622Z,121.27
2022-12-17T18:08:09.858Z,116.80
2022-12-17T18:10:37.157Z,138.80
2022-12-17T18:13:22.917Z,104.87
2022-12-17T18:15:50.192Z,114.43
2022-12-17T18:18:17.424Z,114.57
2022-12-17T18:20:44.649Z,120.13
2022-12-17T18:23:11.865Z,128.73
2022-12-17T18:25:39.006Z,123.30
2022-12-17T18:28:06.268Z,123.00
2022-12-17T18:30:33.460Z,124.07
2022-12-17T18:33:00.643Z,131.30
2022-12-17T18:35:27.850Z,166.60
2022-12-17T18:37:54.982Z,157.30
2022-12-17T18:40:22.158Z,118.90
2022-12-17T18:43:07.935Z,123.07
2022-12-17T18:45:38.188Z,144.17
2022-12-17T18:48:05.791Z,108.13
2022-12-17T18:50:32.986Z,106.87
2022-12-17T18:53:00.100Z,105.53
2022-12-17T18:55:27.272Z,103.83
2022-12-17T18:57:54.521Z,102.50
2022-12-17T19:00:21.734Z,113.13
2022-12-17T19:02:49.058Z,110.43
2022-12-17T19:05:16.368Z,118.00
2022-12-17T19:07:43.738Z,102.13
2022-12-17T19:10:11.006Z,94.27
2022-12-17T19:12:38.161Z,92.67
2022-12-17T19:15:05.476Z,93.97
2022-12-17T19:17:32.810Z,92.63
2022-12-17T19:20:00.038Z,91.53
2022-12-17T19:22:27.243Z,101.53
2022-12-17T19:24:54.435Z,119.03
2022-12-17T19:27:21.644Z,104.53
2022-12-17T19:29:49.867Z,110.93
2022-12-17T19:32:17.304Z,99.97
2022-12-17T19:34:44.723Z,103.50
2022-12-17T19:37:12.292Z,98.87
2022-12-17T19:39:39.461Z,91.60
2022-12-17T19:42:24.424Z,104.83
2022-12-17T19:44:55.459Z,122.60
2022-12-17T19:47:25.462Z,104.27
2022-12-17T19:49:52.645Z,128.30
2022-12-17T19:52:19.814Z,99.60
2022-12-17T19:54:47.017Z,96.53
2022-12-17T19:57:14.188Z,101.87
2022-12-17T19:59:41.385Z,97.13
2022-12-17T20:02:09.648Z,95.20
2022-12-17T20:04:36.893Z,94.90
2022-12-17T20:07:04.156Z,88.20
2022-12-17T20:09:31.397Z,77.37
2022-12-17T20:11:58.604Z,81.93
2022-12-17T20:14:26.523Z,107.57
2022-12-17T20:16:55.453Z,96.13
2022-12-17T20:19:26.634Z,102.90
2022-12-17T20:21:54.860Z,93.83
2022-12-17T20:24:28.863Z,93.17
2022-12-17T20:26:58.223Z,102.37
2022-12-17T20:29:25.527Z,97.23
2022-12-17T20:31:52.992Z,101.37
2022-12-17T20:34:20.560Z,101.87
2022-12-17T20:36:47.722Z,87.20
2022-12-17T20:39:14.918Z,92.33
2022-12-17T20:41:42.210Z,85.60
2022-12-17T20:44:11.628Z,86.07
2022-12-17T20:46:41.039Z,81.53
2022-12-17T20:49:08.304Z,86.70
2022-12-17T20:51:35.484Z,92.97
2022-12-17T20:54:02.813Z,94.07
2022-12-17T20:56:30.827Z,90.30
2022-12-17T20:58:58.998Z,88.43
2022-12-17T21:01:27.001Z,85.87
2022-12-17T21:03:54.813Z,84.10
2022-12-17T21:06:23.021Z,85.80
2022-12-17T21:08:51.091Z,74.87
2022-12-17T21:11:19.081Z,87.50
2022-12-17T21:13:46.401Z,74.77
2022-12-17T21:16:14.480Z,81.87
2022-12-17T21:18:42.050Z,88.70
2022-12-17T21:21:18.009Z,87.53
2022-12-17T21:23:45.478Z,85.63
2022-12-17T21:26:16.735Z,74.43
2022-12-17T21:28:45.410Z,75.80
2022-12-17T21:31:19.630Z,65.43
2022-12-17T21:33:50.249Z,63.77
2022-12-17T21:36:18.525Z,64.93
2022-12-17T21:38:45.688Z,65.30
2022-12-17T21:41:15.553Z,57.10
2022-12-17T21:43:42.761Z,61.70
2022-12-17T21:46:10.683Z,63.90
2022-12-17T21:48:41.896Z,55.03
2022-12-17T21:51:09.902Z,57.73
2022-12-17T21:53:41.875Z,65.40
2022-12-17T21:56:10.105Z,58.63
2022-12-17T21:58:37.939Z,57.40
2022-12-17T22:01:13.944Z,63.27
2022-12-17T22:03:46.715Z,79.53
2022-12-17T22:06:15.585Z,74.27
2022-12-17T22:08:43.109Z,66.93
2022-12-17T22:11:18.811Z,61.43
2022-12-17T22:14:08.628Z,62.73
2022-12-17T22:16:46.740Z,52.73
2022-12-17T22:19:14.750Z,54.27
2022-12-17T22:21:42.922Z,57.07
2022-12-17T22:24:17.141Z,59.00
2022-12-17T22:26:44.676Z,57.07
2022-12-17T22:29:11.858Z,56.10
2022-12-17T22:31:57.878Z,49.93
2022-12-17T22:34:45.077Z,59.07
2022-12-17T22:40:05.749Z,59.80
2022-12-17T22:44:34.853Z,58.23
2022-12-17T22:44:43.119Z,58.43
2022-12-17T22:45:53.183Z,54.67
2022-12-17T22:48:22.109Z,62.13
2022-12-17T22:51:01.953Z,59.03
2022-12-17T22:53:31.760Z,63.10
2022-12-17T22:56:12.413Z,54.33
2022-12-17T22:58:43.375Z,50.20
2022-12-17T23:01:10.547Z,62.53
2022-12-17T23:03:38.234Z,58.87
2022-12-17T23:06:06.965Z,49.57
2022-12-17T23:08:34.122Z,58.37
2022-12-17T23:11:06.186Z,53.00
2022-12-17T23:13:33.366Z,53.87
2022-12-17T23:16:00.613Z,55.87
2022-12-17T23:18:27.826Z,67.23
2022-12-17T23:20:55.029Z,63.30
2022-12-17T23:23:22.208Z,57.70
2022-12-17T23:25:49.339Z,57.40
2022-12-17T23:28:16.501Z,52.87
2022-12-17T23:30:43.673Z,54.80
2022-12-17T23:33:10.840Z,49.60
2022-12-17T23:35:38.132Z,52.63
2022-12-17T23:38:05.317Z,54.13
2022-12-17T23:40:32.549Z,57.53
2022-12-17T23:43:00.672Z,54.93
2022-12-17T23:45:28.512Z,58.37
2022-12-17T23:47:57.426Z,53.57
2022-12-17T23:50:24.646Z,63.00
2022-12-17T23:52:51.783Z,52.30
2022-12-17T23:55:18.970Z,54.23
2022-12-17T23:57:46.429Z,53.50
